createdAt,value
2018-01-03T00:01:23.728Z,7.40
2018-01-03T00:03:51.259Z,7.93
2018-01-03T00:06:18.722Z,7.90
2018-01-03T00:08:46.254Z,8.47
2018-01-03T00:11:13.706Z,9.93
2018-01-03T00:13:41.190Z,7.20
2018-01-03T00:16:08.664Z,7.30
2018-01-03T00:18:36.177Z,6.97
2018-01-03T00:21:04.419Z,5.10
2018-01-03T00:23:32.020Z,2.73
2018-01-03T00:25:59.474Z,2.97
2018-01-03T00:28:26.974Z,3.10
2018-01-03T00:30:54.429Z,2.30
2018-01-03T00:33:21.898Z,2.30
2018-01-03T00:35:49.365Z,2.87
2018-01-03T00:38:16.836Z,2.10
2018-01-03T00:40:44.304Z,2.30
2018-01-03T00:43:12.533Z,5.20
2018-01-03T00:45:40.018Z,4.50
2018-01-03T00:48:07.476Z,5.77
2018-01-03T00:50:34.949Z,5.87
2018-01-03T00:53:02.427Z,5.30
2018-01-03T00:55:30.667Z,5.53
2018-01-03T00:57:58.118Z,3.50
2018-01-03T01:00:25.613Z,3.37
2018-01-03T01:02:54.870Z,2.77
2018-01-03T01:05:22.332Z,3.70
2018-01-03T01:07:49.854Z,3.50
2018-01-03T01:10:17.318Z,3.00
2018-01-03T01:12:44.812Z,3.80
2018-01-03T01:15:12.564Z,3.67
2018-01-03T01:17:40.109Z,4.13
2018-01-03T01:20:08.581Z,5.60
2018-01-03T01:22:36.062Z,6.00
2018-01-03T01:25:03.532Z,6.43
2018-01-03T01:27:31.018Z,5.13
2018-01-03T01:29:58.547Z,6.20
2018-01-03T01:32:26.012Z,7.50
2018-01-03T01:34:53.766Z,6.83
2018-01-03T01:37:21.235Z,6.43
2018-01-03T01:39:48.705Z,4.10
2018-01-03T01:42:16.185Z,6.03
2018-01-03T01:44:44.417Z,5.10
2018-01-03T01:47:11.877Z,3.93
2018-01-03T01:49:39.341Z,3.70
2018-01-03T01:52:06.821Z,3.13
2018-01-03T01:54:34.344Z,3.47
2018-01-03T01:57:01.821Z,2.87
2018-01-03T01:59:29.326Z,3.63
2018-01-03T02:01:56.793Z,2.73
2018-01-03T02:04:24.317Z,2.70
2018-01-03T02:06:51.766Z,2.00
2018-01-03T02:09:19.275Z,2.07
2018-01-03T02:11:46.730Z,2.47
2018-01-03T02:14:14.209Z,2.10
2018-01-03T02:16:41.673Z,1.90
2018-01-03T02:19:09.185Z,1.90
2018-01-03T02:21:37.398Z,1.60
2018-01-03T02:24:04.853Z,1.50
2018-01-03T02:26:32.346Z,1.40
2018-01-03T02:28:59.802Z,1.60
2018-01-03T02:31:27.278Z,1.80
2018-01-03T02:33:54.952Z,1.37
2018-01-03T02:36:23.262Z,1.50
2018-01-03T02:38:50.718Z,1.23
2018-01-03T02:41:18.189Z,1.27
2018-01-03T02:43:45.670Z,2.00
2018-01-03T02:46:13.150Z,2.30
2018-01-03T02:48:40.609Z,2.30
2018-01-03T02:51:08.078Z,2.23
2018-01-03T02:53:36.335Z,3.67
2018-01-03T02:56:03.849Z,4.73
2018-01-03T02:58:31.339Z,5.00
2018-01-03T03:00:58.831Z,4.20
2018-01-03T03:03:27.070Z,4.17
2018-01-03T03:05:54.550Z,5.03
2018-01-03T03:08:22.791Z,5.60
2018-01-03T03:10:50.262Z,2.67
2018-01-03T03:13:17.733Z,1.57
2018-01-03T03:15:45.278Z,1.37
2018-01-03T03:18:12.749Z,1.50
2018-01-03T03:20:40.327Z,1.10
2018-01-03T03:23:07.797Z,1.40
2018-01-03T03:25:35.289Z,1.47
2018-01-03T03:28:02.760Z,1.70
2018-01-03T03:30:30.225Z,1.27
2018-01-03T03:32:57.705Z,2.20
2018-01-03T03:35:25.182Z,1.00
2018-01-03T03:37:52.688Z,0.90
2018-01-03T03:40:20.165Z,0.90
2018-01-03T03:42:47.621Z,4.30
2018-01-03T03:45:15.091Z,5.07
2018-01-03T03:47:42.587Z,4.27
2018-01-03T03:50:10.830Z,4.33
2018-01-03T03:52:38.285Z,4.20
2018-01-03T03:55:05.762Z,3.93
2018-01-03T03:57:33.245Z,5.40
2018-01-03T04:00:01.480Z,3.83
2018-01-03T04:02:28.954Z,5.07
2018-01-03T04:04:56.437Z,3.60
2018-01-03T04:07:24.692Z,2.80
2018-01-03T04:09:52.160Z,1.43
2018-01-03T04:12:20.651Z,1.57
2018-01-03T04:14:48.927Z,1.07
2018-01-03T04:17:17.141Z,1.20
2018-01-03T04:19:44.609Z,1.10
2018-01-03T04:22:12.084Z,0.77
2018-01-03T04:24:39.615Z,0.97
2018-01-03T04:27:07.065Z,1.30
2018-01-03T04:29:34.540Z,1.50
2018-01-03T04:32:01.994Z,1.30
2018-01-03T04:34:29.477Z,1.73
2018-01-03T04:36:56.950Z,1.20
2018-01-03T04:39:24.418Z,1.17
2018-01-03T04:41:52.668Z,1.30
2018-01-03T04:44:20.326Z,1.10
2018-01-03T04:46:47.802Z,1.20
2018-01-03T04:49:15.261Z,0.93
2018-01-03T04:51:42.730Z,1.43
2018-01-03T04:54:10.243Z,1.20
2018-01-03T04:56:37.719Z,0.70
2018-01-03T04:59:05.213Z,1.50
2018-01-03T05:01:33.485Z,1.10
2018-01-03T05:04:01.721Z,1.10
2018-01-03T05:06:29.282Z,1.20
2018-01-03T05:08:56.754Z,1.43
2018-01-03T05:11:24.238Z,1.07
2018-01-03T05:13:51.701Z,1.37
2018-01-03T05:16:19.946Z,1.27
2018-01-03T05:18:47.417Z,1.63
2018-01-03T05:21:14.893Z,1.90
2018-01-03T05:23:43.146Z,1.83
2018-01-03T05:26:10.621Z,1.57
2018-01-03T05:28:38.069Z,1.77
2018-01-03T05:31:05.539Z,2.13
2018-01-03T05:33:33.789Z,1.77
2018-01-03T05:36:01.266Z,1.40
2018-01-03T05:38:29.522Z,2.90
2018-01-03T05:40:57.006Z,1.63
2018-01-03T05:43:25.286Z,1.70
2018-01-03T05:45:53.515Z,2.70
2018-01-03T05:48:20.990Z,3.17
2018-01-03T05:50:48.635Z,2.13
2018-01-03T05:53:16.100Z,4.10
2018-01-03T05:55:43.562Z,2.00
2018-01-03T05:58:11.145Z,3.03
2018-01-03T06:00:38.709Z,2.90
2018-01-03T06:03:06.967Z,2.97
2018-01-03T06:05:34.482Z,3.00
2018-01-03T06:08:02.088Z,2.90
2018-01-03T06:10:29.559Z,2.60
2018-01-03T06:12:57.060Z,2.50
2018-01-03T06:15:24.571Z,3.40
2018-01-03T06:17:52.070Z,3.03
2018-01-03T06:20:19.595Z,6.10
2018-01-03T06:22:47.073Z,2.97
2018-01-03T06:25:15.319Z,3.37
2018-01-03T06:27:42.807Z,3.13
2018-01-03T06:30:10.317Z,3.47
2018-01-03T06:32:37.804Z,3.13
2018-01-03T06:35:06.799Z,2.50
2018-01-03T06:37:34.270Z,3.77
2018-01-03T06:40:01.753Z,2.50
2018-01-03T06:42:30.080Z,3.23
2018-01-03T06:44:57.551Z,2.20
2018-01-03T06:47:25.321Z,5.73
2018-01-03T06:49:52.837Z,3.37
2018-01-03T06:52:20.305Z,2.53
2018-01-03T06:54:47.765Z,3.00
2018-01-03T06:57:15.241Z,2.80
2018-01-03T06:59:42.714Z,2.97
2018-01-03T07:02:10.260Z,4.63
2018-01-03T07:04:37.705Z,4.10
2018-01-03T07:07:05.166Z,3.30
2018-01-03T07:09:32.660Z,3.20
2018-01-03T07:12:00.134Z,3.20
2018-01-03T07:14:28.357Z,2.93
2018-01-03T07:16:55.836Z,3.30
2018-01-03T07:19:23.332Z,4.27
2018-01-03T07:21:51.572Z,4.00
2018-01-03T07:24:19.070Z,3.67
2018-01-03T07:26:46.569Z,4.13
2018-01-03T07:29:14.077Z,4.50
2018-01-03T07:31:42.948Z,4.07
2018-01-03T07:34:10.514Z,4.63
2018-01-03T07:36:38.018Z,4.53
2018-01-03T07:39:05.469Z,3.80
2018-01-03T07:41:32.974Z,3.97
2018-01-03T07:44:00.430Z,3.60
2018-01-03T07:46:27.891Z,3.40
2018-01-03T07:48:55.525Z,3.57
2018-01-03T07:51:23.127Z,4.00
2018-01-03T07:53:51.497Z,3.77
2018-01-03T07:56:18.974Z,3.40
2018-01-03T07:58:46.445Z,3.70
2018-01-03T08:01:14.688Z,3.30
2018-01-03T08:03:42.183Z,3.03
2018-01-03T08:06:10.524Z,3.40
2018-01-03T08:08:38.003Z,2.90
2018-01-03T08:11:06.464Z,3.07
2018-01-03T08:13:33.938Z,3.50
2018-01-03T08:16:01.397Z,2.77
2018-01-03T08:18:28.877Z,3.80
2018-01-03T08:20:56.392Z,2.77
2018-01-03T08:23:23.866Z,2.37
2018-01-03T08:25:52.000Z,3.13
2018-01-03T08:28:19.461Z,3.50
2018-01-03T08:30:47.070Z,3.60
2018-01-03T08:33:14.522Z,2.40
2018-01-03T08:35:42.066Z,3.20
2018-01-03T08:38:09.530Z,2.07
2018-01-03T08:40:37.027Z,2.53
2018-01-03T08:43:05.229Z,2.50
2018-01-03T08:45:32.715Z,2.97
2018-01-03T08:48:00.180Z,1.97
2018-01-03T08:50:27.672Z,1.27
2018-01-03T08:52:55.921Z,1.60
2018-01-03T08:55:23.385Z,2.00
2018-01-03T08:57:50.861Z,2.37
2018-01-03T09:00:19.106Z,2.20
2018-01-03T09:02:46.572Z,2.73
2018-01-03T09:05:15.682Z,2.83
2018-01-03T09:07:43.287Z,4.83
2018-01-03T09:10:10.761Z,2.73
2018-01-03T09:12:38.226Z,5.43
2018-01-03T09:15:05.807Z,3.33
2018-01-03T09:17:33.498Z,3.50
2018-01-03T09:20:01.094Z,3.27
2018-01-03T09:22:28.561Z,3.50
2018-01-03T09:24:56.493Z,2.70
2018-01-03T09:27:23.985Z,3.90
2018-01-03T09:29:51.458Z,3.33
2018-01-03T09:32:18.953Z,3.70
2018-01-03T09:34:47.196Z,3.43
2018-01-03T09:37:14.649Z,4.30
2018-01-03T09:39:42.234Z,3.87
2018-01-03T09:42:09.706Z,3.30
2018-01-03T09:44:38.041Z,4.37
2018-01-03T09:47:07.013Z,3.83
2018-01-03T09:49:35.144Z,3.10
2018-01-03T09:52:02.926Z,2.53
2018-01-03T09:54:30.963Z,3.07
2018-01-03T09:56:59.355Z,3.03
2018-01-03T09:59:27.220Z,3.53
2018-01-03T10:01:54.752Z,3.27
2018-01-03T10:04:22.252Z,4.03
2018-01-03T10:06:50.640Z,4.43
2018-01-03T10:09:18.859Z,4.00
2018-01-03T10:11:46.449Z,2.90
2018-01-03T10:14:14.380Z,6.77
2018-01-03T10:16:41.895Z,3.60
2018-01-03T10:19:09.477Z,2.40
2018-01-03T10:21:37.737Z,4.37
2018-01-03T10:24:05.975Z,3.67
2018-01-03T10:26:33.461Z,3.53
2018-01-03T10:29:00.973Z,3.20
2018-01-03T10:31:28.441Z,3.67
2018-01-03T10:33:56.327Z,4.00
2018-01-03T10:36:23.801Z,4.00
2018-01-03T10:38:51.302Z,4.10
2018-01-03T10:41:18.767Z,3.90
2018-01-03T10:43:46.271Z,5.00
2018-01-03T10:46:14.075Z,3.23
2018-01-03T10:48:42.338Z,4.30
2018-01-03T10:51:12.064Z,4.10
2018-01-03T10:53:40.221Z,3.47
2018-01-03T10:56:09.333Z,6.00
2018-01-03T10:58:36.961Z,4.87
2018-01-03T11:01:04.437Z,5.33
2018-01-03T11:03:32.759Z,3.50
2018-01-03T11:06:00.265Z,4.63
2018-01-03T11:08:28.519Z,3.00
2018-01-03T11:10:57.277Z,3.90
2018-01-03T11:13:24.948Z,3.57
2018-01-03T11:15:52.449Z,3.77
2018-01-03T11:18:20.468Z,4.07
2018-01-03T11:20:48.033Z,4.23
2018-01-03T11:23:15.483Z,4.03
2018-01-03T11:25:42.967Z,4.20
2018-01-03T11:28:10.499Z,4.13
2018-01-03T11:30:38.002Z,5.20
2018-01-03T11:33:05.480Z,4.03
2018-01-03T11:35:33.885Z,4.07
2018-01-03T11:38:02.097Z,4.00
2018-01-03T11:40:29.662Z,5.80
2018-01-03T11:42:57.362Z,4.37
2018-01-03T11:45:25.598Z,5.13
2018-01-03T11:47:53.069Z,3.23
2018-01-03T11:50:20.541Z,4.07
2018-01-03T11:52:48.019Z,3.43
2018-01-03T11:55:16.271Z,5.33
2018-01-03T11:57:45.273Z,5.23
2018-01-03T12:00:12.732Z,3.30
2018-01-03T12:02:41.132Z,5.07
2018-01-03T12:05:09.363Z,4.30
2018-01-03T12:07:36.825Z,4.43
2018-01-03T12:10:05.016Z,3.97
2018-01-03T12:12:32.480Z,3.87
2018-01-03T12:14:59.955Z,3.67
2018-01-03T12:17:28.199Z,3.43
2018-01-03T12:19:55.696Z,3.50
2018-01-03T12:22:23.913Z,3.53
2018-01-03T12:24:51.403Z,4.07
2018-01-03T12:27:18.864Z,3.70
2018-01-03T12:29:46.341Z,3.90
2018-01-03T12:32:14.565Z,3.83
2018-01-03T12:34:42.719Z,4.73
2018-01-03T12:37:11.616Z,3.63
2018-01-03T12:39:39.343Z,4.87
2018-01-03T12:42:07.603Z,4.40
2018-01-03T12:44:35.060Z,4.43
2018-01-03T12:47:02.545Z,4.37
2018-01-03T12:49:30.794Z,4.47
2018-01-03T12:51:59.853Z,3.80
2018-01-03T12:54:27.414Z,4.87
2018-01-03T12:56:55.903Z,3.43
2018-01-03T12:59:23.364Z,2.97
2018-01-03T13:01:50.835Z,3.33
2018-01-03T13:04:18.302Z,4.50
2018-01-03T13:06:46.690Z,4.83
2018-01-03T13:09:14.138Z,3.80
2018-01-03T13:11:41.632Z,5.47
2018-01-03T13:14:09.848Z,4.60
2018-01-03T13:16:37.331Z,3.90
2018-01-03T13:19:04.875Z,3.30
2018-01-03T13:21:32.335Z,4.20
2018-01-03T13:23:59.802Z,4.90
2018-01-03T13:26:27.253Z,4.43
2018-01-03T13:28:54.810Z,3.60
2018-01-03T13:31:22.841Z,4.23
2018-01-03T13:33:50.906Z,3.10
2018-01-03T13:36:19.338Z,3.20
2018-01-03T13:38:46.879Z,5.20
2018-01-03T13:41:15.351Z,3.00
2018-01-03T13:43:42.867Z,3.83
2018-01-03T13:46:10.356Z,2.90
2018-01-03T13:48:38.637Z,3.97
2018-01-03T13:51:06.271Z,3.70
2018-01-03T13:53:34.498Z,3.10
2018-01-03T13:56:01.981Z,3.77
2018-01-03T13:58:29.956Z,4.90
2018-01-03T14:00:57.429Z,4.03
2018-01-03T14:03:26.839Z,3.57
2018-01-03T14:05:54.460Z,6.13
2018-01-03T14:08:21.922Z,3.50
2018-01-03T14:10:49.426Z,4.17
2018-01-03T14:13:17.727Z,3.90
2018-01-03T14:15:45.556Z,4.67
2018-01-03T14:18:13.134Z,4.30
2018-01-03T14:20:41.590Z,3.53
2018-01-03T14:23:09.198Z,4.70
2018-01-03T14:25:36.701Z,5.03
2018-01-03T14:28:04.413Z,4.57
2018-01-03T14:30:31.882Z,4.07
2018-01-03T14:32:59.393Z,3.40
2018-01-03T14:35:27.659Z,4.70
2018-01-03T14:37:56.854Z,4.30
2018-01-03T14:40:24.391Z,3.73
2018-01-03T14:42:51.922Z,4.73
2018-01-03T14:45:20.429Z,4.67
2018-01-03T14:47:47.895Z,4.63
2018-01-03T14:50:16.732Z,3.80
2018-01-03T14:52:44.304Z,3.83
2018-01-03T14:55:12.595Z,4.43
2018-01-03T14:57:40.809Z,5.90
2018-01-03T15:00:08.519Z,4.57
2018-01-03T15:02:36.794Z,4.30
2018-01-03T15:05:05.037Z,5.10
2018-01-03T15:07:33.046Z,5.77
2018-01-03T15:10:00.521Z,6.53
2018-01-03T15:12:28.049Z,3.97
2018-01-03T15:14:56.174Z,4.23
2018-01-03T15:17:23.657Z,5.80
2018-01-03T15:19:51.187Z,5.43
2018-01-03T15:22:19.768Z,5.30
2018-01-03T15:24:47.826Z,6.77
2018-01-03T15:27:15.425Z,4.90
2018-01-03T15:29:42.905Z,6.10
2018-01-03T15:32:10.846Z,5.40
2018-01-03T15:34:38.310Z,5.57
2018-01-03T15:37:05.806Z,5.33
2018-01-03T15:39:33.267Z,7.80
2018-01-03T15:42:02.210Z,5.60
2018-01-03T15:44:30.305Z,5.67
2018-01-03T15:46:57.782Z,5.27
2018-01-03T15:49:25.406Z,7.40
2018-01-03T15:51:52.877Z,4.30
2018-01-03T15:54:20.357Z,6.07
2018-01-03T15:56:48.507Z,5.27
2018-01-03T15:59:16.040Z,6.60
2018-01-03T16:01:43.521Z,6.47
2018-01-03T16:04:11.976Z,5.93
2018-01-03T16:06:40.094Z,6.50
2018-01-03T16:09:07.564Z,7.70
2018-01-03T16:11:35.022Z,7.53
2018-01-03T16:14:03.317Z,6.97
2018-01-03T16:16:31.582Z,9.20
2018-01-03T16:18:59.854Z,8.70
2018-01-03T16:21:27.334Z,6.37
2018-01-03T16:23:55.570Z,6.57
2018-01-03T16:26:23.039Z,6.90
2018-01-03T16:28:51.685Z,6.70
2018-01-03T16:31:20.382Z,6.73
2018-01-03T16:33:47.850Z,6.80
2018-01-03T16:36:16.147Z,8.30
2018-01-03T16:38:43.668Z,8.70
2018-01-03T16:41:11.673Z,5.93
2018-01-03T16:43:39.287Z,5.60
2018-01-03T16:46:09.566Z,6.13
2018-01-03T16:48:38.263Z,7.63
2018-01-03T16:51:05.891Z,4.47
2018-01-03T16:53:35.316Z,8.07
2018-01-03T16:56:04.298Z,6.57
2018-01-03T16:58:31.850Z,4.90
2018-01-03T17:00:59.727Z,6.20
2018-01-03T17:03:27.243Z,6.33
2018-01-03T17:05:55.131Z,4.97
2018-01-03T17:08:22.793Z,6.70
2018-01-03T17:10:50.829Z,6.47
2018-01-03T17:13:19.310Z,6.60
2018-01-03T17:15:46.775Z,8.53
2018-01-03T17:18:14.384Z,8.67
2018-01-03T17:20:43.109Z,9.43
2018-01-03T17:23:11.359Z,7.97
2018-01-03T17:25:39.076Z,6.90
2018-01-03T17:28:06.598Z,6.53
2018-01-03T17:30:34.899Z,10.97
2018-01-03T17:33:03.131Z,7.80
2018-01-03T17:35:32.003Z,7.43
2018-01-03T17:38:00.468Z,6.37
2018-01-03T17:40:27.963Z,8.53
2018-01-03T17:42:55.428Z,9.90
2018-01-03T17:45:22.965Z,7.00
2018-01-03T17:47:50.466Z,9.43
2018-01-03T17:50:18.946Z,8.30
2018-01-03T17:52:47.166Z,9.80
2018-01-03T17:55:14.676Z,11.83
2018-01-03T17:57:42.942Z,7.87
2018-01-03T18:00:10.410Z,7.13
2018-01-03T18:02:38.659Z,7.70
2018-01-03T18:05:06.306Z,8.57
2018-01-03T18:07:33.779Z,8.50
2018-01-03T18:10:01.277Z,9.93
2018-01-03T18:12:28.786Z,7.27
2018-01-03T18:14:56.414Z,7.37
2018-01-03T18:17:24.180Z,8.13
2018-01-03T18:19:51.716Z,9.90
2018-01-03T18:22:19.583Z,8.07
2018-01-03T18:24:47.830Z,9.87
2018-01-03T18:27:15.654Z,8.03
2018-01-03T18:29:43.154Z,8.10
2018-01-03T18:32:10.712Z,7.90
2018-01-03T18:34:38.212Z,10.20
2018-01-03T18:37:06.453Z,8.03
2018-01-03T18:39:33.942Z,8.80
2018-01-03T18:42:02.176Z,9.33
2018-01-03T18:44:29.674Z,7.80
2018-01-03T18:46:57.911Z,6.97
2018-01-03T18:49:25.405Z,7.47
2018-01-03T18:51:53.651Z,9.50
2018-01-03T18:54:21.130Z,8.63
2018-01-03T18:56:48.632Z,7.30
2018-01-03T18:59:16.130Z,7.13
2018-01-03T19:01:43.601Z,6.30
2018-01-03T19:04:11.092Z,6.33
2018-01-03T19:06:39.334Z,8.20
2018-01-03T19:09:06.908Z,9.73
2018-01-03T19:11:34.425Z,7.53
2018-01-03T19:14:02.158Z,8.47
2018-01-03T19:16:30.863Z,7.80
2018-01-03T19:18:58.338Z,9.60
2018-01-03T19:21:26.148Z,10.13
2018-01-03T19:23:54.433Z,9.70
2018-01-03T19:26:21.902Z,10.20
2018-01-03T19:28:50.149Z,9.43
2018-01-03T19:31:18.842Z,10.67
2018-01-03T19:33:47.324Z,7.20
2018-01-03T19:36:16.486Z,7.80
2018-01-03T19:38:45.609Z,9.80
2018-01-03T19:41:13.377Z,6.70
2018-01-03T19:43:41.812Z,7.23
2018-01-03T19:46:09.917Z,8.33
2018-01-03T19:48:37.459Z,7.63
2018-01-03T19:51:04.970Z,10.20
2018-01-03T19:53:33.046Z,9.47
2018-01-03T19:56:01.724Z,8.57
2018-01-03T19:58:29.228Z,8.33
2018-01-03T20:00:57.854Z,8.63
2018-01-03T20:03:26.991Z,9.40
2018-01-03T20:05:55.596Z,9.47
2018-01-03T20:08:27.387Z,10.20
2018-01-03T20:10:56.665Z,8.77
2018-01-03T20:13:25.134Z,8.37
2018-01-03T20:15:52.951Z,8.03
2018-01-03T20:18:20.518Z,8.47
2018-01-03T20:20:48.783Z,8.10
2018-01-03T20:23:17.812Z,6.80
2018-01-03T20:25:45.518Z,6.83
2018-01-03T20:28:13.070Z,8.27
2018-01-03T20:30:40.588Z,7.37
2018-01-03T20:33:08.823Z,6.97
2018-01-03T20:35:36.322Z,6.10
2018-01-03T20:38:04.556Z,6.80
2018-01-03T20:40:32.061Z,7.87
2018-01-03T20:42:59.625Z,6.87
2018-01-03T20:45:27.198Z,6.83
2018-01-03T20:47:54.658Z,7.23
2018-01-03T20:50:22.114Z,9.07
2018-01-03T20:52:49.585Z,7.00
2018-01-03T20:55:17.571Z,8.17
2018-01-03T20:57:45.142Z,8.53
2018-01-03T21:00:12.624Z,8.23
2018-01-03T21:02:40.886Z,7.30
2018-01-03T21:05:08.392Z,7.33
2018-01-03T21:07:36.077Z,5.50
2018-01-03T21:10:03.531Z,6.73
2018-01-03T21:12:31.034Z,7.70
2018-01-03T21:14:58.512Z,9.40
2018-01-03T21:17:26.889Z,7.93
2018-01-03T21:19:56.894Z,8.47
2018-01-03T21:22:25.355Z,7.10
2018-01-03T21:24:52.896Z,10.10
2018-01-03T21:27:20.547Z,9.10
2018-01-03T21:29:48.017Z,7.70
2018-01-03T21:32:15.487Z,8.07
2018-01-03T21:34:43.802Z,5.30
2018-01-03T21:37:11.310Z,6.83
2018-01-03T21:39:39.506Z,7.50
2018-01-03T21:42:07.037Z,8.20
2018-01-03T21:44:34.556Z,6.93
2018-01-03T21:47:02.797Z,6.43
2018-01-03T21:49:30.397Z,7.97
2018-01-03T21:52:00.225Z,8.70
2018-01-03T21:54:28.238Z,8.67
2018-01-03T21:56:56.329Z,7.67
2018-01-03T21:59:23.789Z,6.80
2018-01-03T22:01:51.256Z,6.53
2018-01-03T22:04:18.736Z,7.10
2018-01-03T22:06:46.261Z,7.80
2018-01-03T22:09:13.785Z,6.17
2018-01-03T22:11:41.289Z,7.70
2018-01-03T22:14:09.531Z,7.60
2018-01-03T22:16:37.046Z,9.07
2018-01-03T22:19:05.413Z,6.60
2018-01-03T22:21:33.813Z,6.17
2018-01-03T22:24:01.284Z,7.33
2018-01-03T22:26:28.757Z,6.53
2018-01-03T22:28:56.227Z,7.10
2018-01-03T22:31:23.695Z,6.67
2018-01-03T22:33:51.172Z,9.37
2018-01-03T22:36:18.663Z,7.07
2018-01-03T22:38:46.563Z,6.30
2018-01-03T22:41:14.027Z,6.83
2018-01-03T22:43:41.566Z,7.20
2018-01-03T22:46:09.047Z,7.30
2018-01-03T22:48:36.535Z,8.93
2018-01-03T22:51:04.001Z,6.53
2018-01-03T22:53:31.533Z,6.07
2018-01-03T22:55:59.441Z,7.70
2018-01-03T22:58:27.817Z,7.20
2018-01-03T23:00:55.285Z,7.10
2018-01-03T23:03:23.515Z,7.83
2018-01-03T23:05:52.333Z,7.77
2018-01-03T23:08:20.586Z,7.00
2018-01-03T23:10:48.166Z,6.43
2018-01-03T23:13:15.623Z,8.33
2018-01-03T23:15:43.081Z,7.57
2018-01-03T23:18:11.330Z,8.30
2018-01-03T23:20:38.857Z,7.03
2018-01-03T23:23:06.546Z,7.30
2018-01-03T23:25:34.130Z,8.93
2018-01-03T23:28:02.691Z,9.33
2018-01-03T23:30:31.190Z,6.57
2018-01-03T23:33:00.446Z,6.80
2018-01-03T23:35:27.927Z,8.00
2018-01-03T23:37:55.386Z,8.00
2018-01-03T23:40:22.858Z,8.77
2018-01-03T23:42:50.361Z,9.30
2018-01-03T23:45:18.594Z,7.17
2018-01-03T23:47:46.731Z,8.07
2018-01-03T23:50:14.223Z,8.07
2018-01-03T23:52:41.688Z,8.20
2018-01-03T23:55:09.165Z,8.70
2018-01-03T23:57:37.414Z,8.00
